sensor_id;sensor_type;location;lat;lon;timestamp;pressure;altitude;pressure_sealevel;temperature;humidity
12757;BME280;31601;48.042;12.240;2023-01-26T00:01:46;96576.94;;;2.04;68.21
12757;BME280;31601;48.042;12.240;2023-01-26T00:04:13;96573.84;;;2.10;67.96
12757;BME280;31601;48.042;12.240;2023-01-26T00:06:41;96576.19;;;2.13;67.97
12757;BME280;31601;48.042;12.240;2023-01-26T00:09:11;96573.69;;;1.79;68.82
12757;BME280;31601;48.042;12.240;2023-01-26T00:11:38;96564.97;;;1.91;68.40
12757;BME280;31601;48.042;12.240;2023-01-26T00:14:04;96559.66;;;1.93;68.81
12757;BME280;31601;48.042;12.240;2023-01-26T00:16:31;96557.69;;;1.85;68.68
12757;BME280;31601;48.042;12.240;2023-01-26T00:18:57;96554.41;;;1.83;69.10
12757;BME280;31601;48.042;12.240;2023-01-26T00:21:24;96558.41;;;1.87;68.87
12757;BME280;31601;48.042;12.240;2023-01-26T00:23:52;96550.88;;;1.73;68.93
12757;BME280;31601;48.042;12.240;2023-01-26T00:26:20;96561.72;;;1.78;69.14
12757;BME280;31601;48.042;12.240;2023-01-26T00:28:48;96552.50;;;1.85;68.94
12757;BME280;31601;48.042;12.240;2023-01-26T00:31:16;96554.13;;;1.31;70.17
12757;BME280;31601;48.042;12.240;2023-01-26T00:33:43;96556.72;;;1.20;71.02
12757;BME280;31601;48.042;12.240;2023-01-26T00:36:10;96550.00;;;1.06;71.71
12757;BME280;31601;48.042;12.240;2023-01-26T00:38:37;96548.38;;;1.28;71.63
12757;BME280;31601;48.042;12.240;2023-01-26T00:41:05;96547.31;;;1.30;71.53
12757;BME280;31601;48.042;12.240;2023-01-26T00:43:32;96547.44;;;1.29;71.31
12757;BME280;31601;48.042;12.240;2023-01-26T00:45:58;96545.06;;;1.14;72.10
12757;BME280;31601;48.042;12.240;2023-01-26T00:48:24;96536.84;;;1.20;72.50
12757;BME280;31601;48.042;12.240;2023-01-26T00:50:51;96534.63;;;1.27;72.09
12757;BME280;31601;48.042;12.240;2023-01-26T00:53:18;96534.97;;;1.11;72.32
12757;BME280;31601;48.042;12.240;2023-01-26T00:55:45;96540.00;;;0.79;72.76
12757;BME280;31601;48.042;12.240;2023-01-26T00:58:12;96535.22;;;0.39;73.63
12757;BME280;31601;48.042;12.240;2023-01-26T01:00:39;96543.69;;;0.52;73.34
12757;BME280;31601;48.042;12.240;2023-01-26T01:03:05;96542.03;;;0.51;73.62
12757;BME280;31601;48.042;12.240;2023-01-26T01:05:33;96541.28;;;0.26;74.49
12757;BME280;31601;48.042;12.240;2023-01-26T01:07:59;96544.47;;;0.06;75.57
12757;BME280;31601;48.042;12.240;2023-01-26T01:10:26;96537.19;;;0.24;75.41
12757;BME280;31601;48.042;12.240;2023-01-26T01:12:53;96548.16;;;0.14;75.74
12757;BME280;31601;48.042;12.240;2023-01-26T01:15:22;96534.97;;;0.30;75.09
12757;BME280;31601;48.042;12.240;2023-01-26T01:17:48;96537.56;;;0.42;75.03
12757;BME280;31601;48.042;12.240;2023-01-26T01:20:15;96540.09;;;0.55;74.71
12757;BME280;31601;48.042;12.240;2023-01-26T01:22:41;96540.69;;;0.69;73.95
12757;BME280;31601;48.042;12.240;2023-01-26T01:25:08;96537.97;;;0.71;74.15
12757;BME280;31601;48.042;12.240;2023-01-26T01:27:35;96537.75;;;0.63;74.29
12757;BME280;31601;48.042;12.240;2023-01-26T01:30:02;96538.31;;;0.66;73.91
12757;BME280;31601;48.042;12.240;2023-01-26T01:32:34;96534.97;;;1.00;73.00
12757;BME280;31601;48.042;12.240;2023-01-26T01:35:01;96537.09;;;0.95;72.91
12757;BME280;31601;48.042;12.240;2023-01-26T01:37:28;96528.41;;;1.18;72.51
12757;BME280;31601;48.042;12.240;2023-01-26T01:39:55;96532.25;;;1.35;72.26
12757;BME280;31601;48.042;12.240;2023-01-26T01:42:22;96531.69;;;1.20;72.62
12757;BME280;31601;48.042;12.240;2023-01-26T01:45:27;96531.69;;;1.20;72.02
12757;BME280;31601;48.042;12.240;2023-01-26T01:48:03;96531.91;;;1.17;71.91
12757;BME280;31601;48.042;12.240;2023-01-26T01:50:35;96528.84;;;0.89;72.55
12757;BME280;31601;48.042;12.240;2023-01-26T01:53:03;96529.69;;;0.90;72.63
12757;BME280;31601;48.042;12.240;2023-01-26T01:55:30;96524.41;;;1.14;72.12
12757;BME280;31601;48.042;12.240;2023-01-26T01:57:58;96526.72;;;0.72;72.61
12757;BME280;31601;48.042;12.240;2023-01-26T02:00:27;96528.72;;;0.91;72.15
12757;BME280;31601;48.042;12.240;2023-01-26T02:02:56;96517.59;;;1.24;71.32
12757;BME280;31601;48.042;12.240;2023-01-26T02:05:42;96514.75;;;1.28;71.40
12757;BME280;31601;48.042;12.240;2023-01-26T02:08:13;96521.22;;;1.11;71.99
12757;BME280;31601;48.042;12.240;2023-01-26T02:10:42;96516.91;;;1.22;71.37
12757;BME280;31601;48.042;12.240;2023-01-26T02:13:08;96513.34;;;1.23;71.13
12757;BME280;31601;48.042;12.240;2023-01-26T02:15:36;96508.44;;;1.09;71.51
12757;BME280;31601;48.042;12.240;2023-01-26T02:18:04;96502.06;;;1.02;71.84
12757;BME280;31601;48.042;12.240;2023-01-26T02:20:36;96505.59;;;0.78;72.21
12757;BME280;31601;48.042;12.240;2023-01-26T02:23:15;96503.97;;;0.88;72.14
12757;BME280;31601;48.042;12.240;2023-01-26T02:26:04;96507.94;;;0.70;72.81
12757;BME280;31601;48.042;12.240;2023-01-26T02:28:31;96497.63;;;0.70;72.45
12757;BME280;31601;48.042;12.240;2023-01-26T02:30:58;96500.66;;;0.86;72.43
12757;BME280;31601;48.042;12.240;2023-01-26T02:33:27;96504.19;;;1.08;71.88
12757;BME280;31601;48.042;12.240;2023-01-26T02:35:54;96502.88;;;1.25;71.37
12757;BME280;31601;48.042;12.240;2023-01-26T02:38:22;96490.00;;;1.14;71.54
12757;BME280;31601;48.042;12.240;2023-01-26T02:40:53;96484.47;;;1.07;71.58
12757;BME280;31601;48.042;12.240;2023-01-26T02:43:24;96489.63;;;0.96;72.11
12757;BME280;31601;48.042;12.240;2023-01-26T02:45:51;96481.53;;;1.00;71.88
12757;BME280;31601;48.042;12.240;2023-01-26T02:48:17;96482.69;;;0.85;72.13
12757;BME280;31601;48.042;12.240;2023-01-26T02:51:05;96477.41;;;0.86;72.22
12757;BME280;31601;48.042;12.240;2023-01-26T02:53:30;96477.06;;;0.80;72.22
12757;BME280;31601;48.042;12.240;2023-01-26T02:55:57;96468.03;;;0.97;72.29
12757;BME280;31601;48.042;12.240;2023-01-26T02:58:24;96466.16;;;0.99;72.40
12757;BME280;31601;48.042;12.240;2023-01-26T03:00:50;96469.44;;;1.12;72.05
12757;BME280;31601;48.042;12.240;2023-01-26T03:03:19;96467.31;;;1.06;72.03
12757;BME280;31601;48.042;12.240;2023-01-26T03:05:48;96458.13;;;1.24;71.44
12757;BME280;31601;48.042;12.240;2023-01-26T03:08:14;96457.31;;;1.35;71.43
12757;BME280;31601;48.042;12.240;2023-01-26T03:10:41;96454.69;;;1.47;70.95
12757;BME280;31601;48.042;12.240;2023-01-26T03:13:08;96460.41;;;1.61;70.58
12757;BME280;31601;48.042;12.240;2023-01-26T03:15:36;96461.81;;;0.99;71.19
12757;BME280;31601;48.042;12.240;2023-01-26T03:18:13;96454.91;;;0.88;71.28
12757;BME280;31601;48.042;12.240;2023-01-26T03:20:58;96451.81;;;0.83;71.51
12757;BME280;31601;48.042;12.240;2023-01-26T03:23:42;96452.66;;;0.84;72.18
12757;BME280;31601;48.042;12.240;2023-01-26T03:26:26;96453.59;;;0.83;71.66
12757;BME280;31601;48.042;12.240;2023-01-26T03:29:11;96449.59;;;0.79;71.89
12757;BME280;31601;48.042;12.240;2023-01-26T03:31:38;96456.28;;;0.93;71.63
12757;BME280;31601;48.042;12.240;2023-01-26T03:34:05;96453.94;;;0.89;71.41
12757;BME280;31601;48.042;12.240;2023-01-26T03:36:31;96453.94;;;1.01;71.34
12757;BME280;31601;48.042;12.240;2023-01-26T03:38:58;96446.19;;;1.12;71.18
12757;BME280;31601;48.042;12.240;2023-01-26T03:41:24;96449.94;;;1.19;70.74
12757;BME280;31601;48.042;12.240;2023-01-26T03:44:09;96450.41;;;1.02;71.03
12757;BME280;31601;48.042;12.240;2023-01-26T03:46:54;96450.53;;;1.12;70.81
12757;BME280;31601;48.042;12.240;2023-01-26T03:49:38;96448.25;;;1.30;70.53
12757;BME280;31601;48.042;12.240;2023-01-26T03:52:22;96442.13;;;1.42;70.23
12757;BME280;31601;48.042;12.240;2023-01-26T03:55:07;96445.06;;;1.49;69.89
12757;BME280;31601;48.042;12.240;2023-01-26T03:57:51;96445.78;;;1.28;70.04
12757;BME280;31601;48.042;12.240;2023-01-26T04:00:18;96442.41;;;1.16;70.31
12757;BME280;31601;48.042;12.240;2023-01-26T04:02:47;96444.03;;;1.17;70.34
12757;BME280;31601;48.042;12.240;2023-01-26T04:05:30;96446.91;;;0.80;71.38
12757;BME280;31601;48.042;12.240;2023-01-26T04:08:15;96442.78;;;0.89;71.13
12757;BME280;31601;48.042;12.240;2023-01-26T04:10:52;96443.50;;;0.91;70.84
12757;BME280;31601;48.042;12.240;2023-01-26T04:13:20;96445.63;;;0.86;70.52
12757;BME280;31601;48.042;12.240;2023-01-26T04:16:06;96442.19;;;0.74;71.15
12757;BME280;31601;48.042;12.240;2023-01-26T04:18:51;96440.56;;;0.84;70.53
12757;BME280;31601;48.042;12.240;2023-01-26T04:21:36;96441.97;;;1.00;69.89
12757;BME280;31601;48.042;12.240;2023-01-26T04:24:04;96428.09;;;1.12;69.40
12757;BME280;31601;48.042;12.240;2023-01-26T04:26:35;96431.84;;;1.08;69.93
12757;BME280;31601;48.042;12.240;2023-01-26T04:29:03;96437.25;;;1.16;69.63
12757;BME280;31601;48.042;12.240;2023-01-26T04:31:30;96432.31;;;1.13;69.86
12757;BME280;31601;48.042;12.240;2023-01-26T04:33:59;96423.81;;;1.34;69.50
12757;BME280;31601;48.042;12.240;2023-01-26T04:36:25;96419.69;;;1.42;69.36
12757;BME280;31601;48.042;12.240;2023-01-26T04:38:52;96425.63;;;1.54;69.13
12757;BME280;31601;48.042;12.240;2023-01-26T04:41:19;96423.28;;;1.51;69.19
12757;BME280;31601;48.042;12.240;2023-01-26T04:43:45;96419.28;;;1.58;69.32
12757;BME280;31601;48.042;12.240;2023-01-26T04:46:12;96422.53;;;1.60;68.79
12757;BME280;31601;48.042;12.240;2023-01-26T04:48:39;96415.63;;;1.61;68.90
12757;BME280;31601;48.042;12.240;2023-01-26T04:51:11;96421.97;;;1.57;68.64
12757;BME280;31601;48.042;12.240;2023-01-26T04:53:37;96415.13;;;1.67;68.72
12757;BME280;31601;48.042;12.240;2023-01-26T04:56:04;96415.94;;;1.68;68.58
12757;BME280;31601;48.042;12.240;2023-01-26T04:58:33;96415.44;;;1.74;68.58
12757;BME280;31601;48.042;12.240;2023-01-26T05:01:00;96416.50;;;1.71;68.59
12757;BME280;31601;48.042;12.240;2023-01-26T05:03:26;96415.44;;;1.74;68.60
12757;BME280;31601;48.042;12.240;2023-01-26T05:05:53;96420.88;;;1.71;68.76
12757;BME280;31601;48.042;12.240;2023-01-26T05:08:21;96421.13;;;1.68;68.75
12757;BME280;31601;48.042;12.240;2023-01-26T05:10:48;96415.28;;;1.54;68.88
12757;BME280;31601;48.042;12.240;2023-01-26T05:13:16;96410.81;;;1.56;68.91
12757;BME280;31601;48.042;12.240;2023-01-26T05:15:42;96412.78;;;1.64;68.82
12757;BME280;31601;48.042;12.240;2023-01-26T05:18:09;96416.75;;;1.68;68.63
12757;BME280;31601;48.042;12.240;2023-01-26T05:20:36;96407.41;;;1.56;68.69
12757;BME280;31601;48.042;12.240;2023-01-26T05:23:02;96403.88;;;1.57;68.39
12757;BME280;31601;48.042;12.240;2023-01-26T05:25:30;96403.94;;;1.67;67.96
12757;BME280;31601;48.042;12.240;2023-01-26T05:27:57;96405.09;;;1.74;68.17
12757;BME280;31601;48.042;12.240;2023-01-26T05:30:23;96399.25;;;1.72;68.09
12757;BME280;31601;48.042;12.240;2023-01-26T05:32:50;96392.75;;;1.45;68.99
12757;BME280;31601;48.042;12.240;2023-01-26T05:35:16;96391.31;;;1.52;68.64
12757;BME280;31601;48.042;12.240;2023-01-26T05:37:43;96400.31;;;1.69;68.00
12757;BME280;31601;48.042;12.240;2023-01-26T05:40:11;96403.13;;;1.66;67.93
12757;BME280;31601;48.042;12.240;2023-01-26T05:42:41;96396.69;;;1.60;67.89
12757;BME280;31601;48.042;12.240;2023-01-26T05:45:08;96408.97;;;1.47;68.08
12757;BME280;31601;48.042;12.240;2023-01-26T05:47:35;96409.88;;;1.57;68.00
12757;BME280;31601;48.042;12.240;2023-01-26T05:50:01;96416.00;;;1.45;68.43
12757;BME280;31601;48.042;12.240;2023-01-26T05:52:28;96421.03;;;1.58;67.98
12757;BME280;31601;48.042;12.240;2023-01-26T05:54:54;96420.56;;;1.64;68.20
12757;BME280;31601;48.042;12.240;2023-01-26T05:57:21;96414.41;;;1.65;68.15
12757;BME280;31601;48.042;12.240;2023-01-26T05:59:48;96418.53;;;1.68;68.08
12757;BME280;31601;48.042;12.240;2023-01-26T06:02:15;96418.66;;;1.66;68.12
12757;BME280;31601;48.042;12.240;2023-01-26T06:04:41;96429.50;;;1.60;68.50
12757;BME280;31601;48.042;12.240;2023-01-26T06:07:17;96434.78;;;1.58;68.38
12757;BME280;31601;48.042;12.240;2023-01-26T06:09:47;96422.91;;;1.67;68.57
12757;BME280;31601;48.042;12.240;2023-01-26T06:12:14;96426.22;;;1.58;68.02
12757;BME280;31601;48.042;12.240;2023-01-26T06:14:41;96430.28;;;1.28;68.16
12757;BME280;31601;48.042;12.240;2023-01-26T06:17:09;96430.50;;;1.36;68.32
12757;BME280;31601;48.042;12.240;2023-01-26T06:19:36;96424.00;;;1.53;67.83
12757;BME280;31601;48.042;12.240;2023-01-26T06:22:03;96420.06;;;1.38;68.21
12757;BME280;31601;48.042;12.240;2023-01-26T06:24:29;96429.91;;;1.44;68.53
12757;BME280;31601;48.042;12.240;2023-01-26T06:26:56;96426.00;;;1.50;68.07
12757;BME280;31601;48.042;12.240;2023-01-26T06:29:22;96423.41;;;1.50;67.92
12757;BME280;31601;48.042;12.240;2023-01-26T06:31:49;96427.75;;;1.49;67.81
12757;BME280;31601;48.042;12.240;2023-01-26T06:34:16;96426.34;;;1.45;68.15
12757;BME280;31601;48.042;12.240;2023-01-26T06:36:43;96423.91;;;1.43;67.87
12757;BME280;31601;48.042;12.240;2023-01-26T06:39:10;96421.41;;;0.98;67.85
12757;BME280;31601;48.042;12.240;2023-01-26T06:41:37;96422.00;;;1.13;67.17
12757;BME280;31601;48.042;12.240;2023-01-26T06:44:04;96418.91;;;1.19;67.09
12757;BME280;31601;48.042;12.240;2023-01-26T06:46:31;96416.09;;;1.22;67.24
12757;BME280;31601;48.042;12.240;2023-01-26T06:48:57;96412.50;;;1.46;66.18
12757;BME280;31601;48.042;12.240;2023-01-26T06:51:46;96410.84;;;1.45;66.58
12757;BME280;31601;48.042;12.240;2023-01-26T06:54:17;96413.72;;;1.31;67.10
12757;BME280;31601;48.042;12.240;2023-01-26T06:56:44;96414.94;;;1.15;67.55
12757;BME280;31601;48.042;12.240;2023-01-26T06:59:10;96412.69;;;1.11;68.14
12757;BME280;31601;48.042;12.240;2023-01-26T07:01:39;96406.00;;;1.08;68.29
12757;BME280;31601;48.042;12.240;2023-01-26T07:04:06;96407.78;;;0.85;68.80
12757;BME280;31601;48.042;12.240;2023-01-26T07:06:33;96406.59;;;1.12;67.89
12757;BME280;31601;48.042;12.240;2023-01-26T07:09:01;96413.16;;;1.27;67.57
12757;BME280;31601;48.042;12.240;2023-01-26T07:11:27;96407.63;;;1.32;67.30
12757;BME280;31601;48.042;12.240;2023-01-26T07:13:55;96416.25;;;1.42;67.39
12757;BME280;31601;48.042;12.240;2023-01-26T07:16:21;96418.41;;;1.37;67.20
12757;BME280;31601;48.042;12.240;2023-01-26T07:18:48;96420.38;;;1.45;67.21
12757;BME280;31601;48.042;12.240;2023-01-26T07:21:17;96411.75;;;1.55;66.78
12757;BME280;31601;48.042;12.240;2023-01-26T07:23:44;96414.16;;;1.47;66.65
12757;BME280;31601;48.042;12.240;2023-01-26T07:26:12;96411.50;;;1.58;66.85
12757;BME280;31601;48.042;12.240;2023-01-26T07:28:39;96409.38;;;1.64;66.81
12757;BME280;31601;48.042;12.240;2023-01-26T07:31:06;96402.50;;;1.74;66.63
12757;BME280;31601;48.042;12.240;2023-01-26T07:33:34;96410.03;;;1.77;66.83
12757;BME280;31601;48.042;12.240;2023-01-26T07:36:01;96404.34;;;1.83;66.65
12757;BME280;31601;48.042;12.240;2023-01-26T07:38:28;96409.34;;;1.75;66.71
12757;BME280;31601;48.042;12.240;2023-01-26T07:40:54;96411.88;;;1.86;66.65
12757;BME280;31601;48.042;12.240;2023-01-26T07:43:23;96411.69;;;1.78;66.33
12757;BME280;31601;48.042;12.240;2023-01-26T07:45:50;96407.88;;;1.82;66.09
12757;BME280;31601;48.042;12.240;2023-01-26T07:48:17;96408.34;;;1.87;66.30
12757;BME280;31601;48.042;12.240;2023-01-26T07:50:44;96404.72;;;1.78;66.33
12757;BME280;31601;48.042;12.240;2023-01-26T07:53:12;96406.56;;;1.88;66.28
12757;BME280;31601;48.042;12.240;2023-01-26T07:55:39;96408.84;;;1.81;66.17
12757;BME280;31601;48.042;12.240;2023-01-26T07:58:08;96406.63;;;1.76;66.06
12757;BME280;31601;48.042;12.240;2023-01-26T08:00:35;96400.38;;;1.79;66.50
12757;BME280;31601;48.042;12.240;2023-01-26T08:03:03;96401.09;;;1.81;66.40
12757;BME280;31601;48.042;12.240;2023-01-26T08:05:30;96397.38;;;1.95;65.91
12757;BME280;31601;48.042;12.240;2023-01-26T08:07:57;96396.09;;;1.89;65.98
12757;BME280;31601;48.042;12.240;2023-01-26T08:10:23;96394.25;;;1.80;65.78
12757;BME280;31601;48.042;12.240;2023-01-26T08:12:50;96397.28;;;1.85;65.68
12757;BME280;31601;48.042;12.240;2023-01-26T08:15:16;96392.94;;;1.86;65.65
12757;BME280;31601;48.042;12.240;2023-01-26T08:17:44;96385.31;;;1.84;65.42
12757;BME280;31601;48.042;12.240;2023-01-26T08:20:11;96391.97;;;1.87;65.57
12757;BME280;31601;48.042;12.240;2023-01-26T08:22:38;96393.75;;;1.86;65.71
12757;BME280;31601;48.042;12.240;2023-01-26T08:25:05;96396.09;;;1.89;65.59
12757;BME280;31601;48.042;12.240;2023-01-26T08:27:32;96396.78;;;1.91;65.73
12757;BME280;31601;48.042;12.240;2023-01-26T08:29:59;96396.16;;;1.78;66.12
12757;BME280;31601;48.042;12.240;2023-01-26T08:32:25;96390.97;;;1.78;65.80
12757;BME280;31601;48.042;12.240;2023-01-26T08:34:55;96389.91;;;1.81;65.55
12757;BME280;31601;48.042;12.240;2023-01-26T08:37:21;96398.69;;;1.89;65.56
12757;BME280;31601;48.042;12.240;2023-01-26T08:39:48;96395.97;;;1.91;66.19
12757;BME280;31601;48.042;12.240;2023-01-26T08:42:14;96388.47;;;2.09;65.96
12757;BME280;31601;48.042;12.240;2023-01-26T08:44:40;96392.56;;;2.11;66.28
12757;BME280;31601;48.042;12.240;2023-01-26T08:47:07;96385.78;;;2.20;65.94
12757;BME280;31601;48.042;12.240;2023-01-26T08:49:33;96394.97;;;2.24;65.75
12757;BME280;31601;48.042;12.240;2023-01-26T08:52:01;96387.78;;;2.38;65.57
12757;BME280;31601;48.042;12.240;2023-01-26T08:54:28;96379.03;;;2.29;64.83
12757;BME280;31601;48.042;12.240;2023-01-26T08:56:54;96383.19;;;2.41;65.09
12757;BME280;31601;48.042;12.240;2023-01-26T08:59:21;96378.28;;;2.38;64.83
12757;BME280;31601;48.042;12.240;2023-01-26T09:01:47;96376.50;;;2.39;64.50
12757;BME280;31601;48.042;12.240;2023-01-26T09:04:14;96376.53;;;2.48;64.22
12757;BME280;31601;48.042;12.240;2023-01-26T09:06:43;96378.97;;;2.50;63.64
12757;BME280;31601;48.042;12.240;2023-01-26T09:09:10;96384.63;;;2.55;63.56
12757;BME280;31601;48.042;12.240;2023-01-26T09:11:42;96383.22;;;2.51;63.47
12757;BME280;31601;48.042;12.240;2023-01-26T09:14:12;96383.59;;;2.37;63.46
12757;BME280;31601;48.042;12.240;2023-01-26T09:16:38;96380.22;;;2.46;62.61
12757;BME280;31601;48.042;12.240;2023-01-26T09:19:08;96375.81;;;2.37;62.28
12757;BME280;31601;48.042;12.240;2023-01-26T09:21:34;96377.16;;;2.41;61.80
12757;BME280;31601;48.042;12.240;2023-01-26T09:24:01;96383.78;;;2.03;61.15
12757;BME280;31601;48.042;12.240;2023-01-26T09:26:29;96381.38;;;2.32;60.66
12757;BME280;31601;48.042;12.240;2023-01-26T09:28:55;96385.53;;;2.23;61.14
12757;BME280;31601;48.042;12.240;2023-01-26T09:31:22;96393.00;;;2.17;62.02
12757;BME280;31601;48.042;12.240;2023-01-26T09:33:49;96393.38;;;2.12;61.69
12757;BME280;31601;48.042;12.240;2023-01-26T09:36:16;96385.41;;;2.25;61.64
12757;BME280;31601;48.042;12.240;2023-01-26T09:38:46;96386.75;;;1.98;61.30
12757;BME280;31601;48.042;12.240;2023-01-26T09:41:21;96391.47;;;1.93;61.04
12757;BME280;31601;48.042;12.240;2023-01-26T09:43:59;96388.97;;;2.03;61.68
12757;BME280;31601;48.042;12.240;2023-01-26T09:46:34;96393.53;;;1.24;62.35
12757;BME280;31601;48.042;12.240;2023-01-26T09:49:07;96395.81;;;1.71;62.71
12757;BME280;31601;48.042;12.240;2023-01-26T09:51:37;96394.00;;;1.83;63.02
12757;BME280;31601;48.042;12.240;2023-01-26T09:54:14;96389.22;;;1.78;62.30
12757;BME280;31601;48.042;12.240;2023-01-26T09:56:45;96386.25;;;2.04;61.54
12757;BME280;31601;48.042;12.240;2023-01-26T09:59:19;96385.38;;;2.15;61.61
12757;BME280;31601;48.042;12.240;2023-01-26T10:01:52;96395.97;;;1.91;61.97
12757;BME280;31601;48.042;12.240;2023-01-26T10:04:26;96383.84;;;2.12;61.17
12757;BME280;31601;48.042;12.240;2023-01-26T10:07:05;96386.59;;;2.21;61.22
12757;BME280;31601;48.042;12.240;2023-01-26T10:09:44;96386.94;;;2.27;61.29
12757;BME280;31601;48.042;12.240;2023-01-26T10:12:17;96373.91;;;2.39;61.29
12757;BME280;31601;48.042;12.240;2023-01-26T10:14:48;96370.25;;;2.41;61.59
12757;BME280;31601;48.042;12.240;2023-01-26T10:17:20;96366.88;;;2.50;61.50
12757;BME280;31601;48.042;12.240;2023-01-26T10:19:53;96369.59;;;2.49;61.31
12757;BME280;31601;48.042;12.240;2023-01-26T10:22:29;96360.59;;;2.53;61.51
12757;BME280;31601;48.042;12.240;2023-01-26T10:24:58;96369.75;;;2.57;61.52
12757;BME280;31601;48.042;12.240;2023-01-26T10:27:28;96357.06;;;2.54;61.66
12757;BME280;31601;48.042;12.240;2023-01-26T10:29:55;96359.91;;;2.51;62.03
12757;BME280;31601;48.042;12.240;2023-01-26T10:32:22;96357.47;;;2.59;62.25
12757;BME280;31601;48.042;12.240;2023-01-26T10:34:50;96352.56;;;2.56;62.06
12757;BME280;31601;48.042;12.240;2023-01-26T10:37:25;96353.56;;;2.65;62.31
12757;BME280;31601;48.042;12.240;2023-01-26T10:39:58;96349.75;;;2.69;61.48
12757;BME280;31601;48.042;12.240;2023-01-26T10:42:26;96347.69;;;2.63;61.71
12757;BME280;31601;48.042;12.240;2023-01-26T10:44:53;96350.31;;;2.73;61.80
12757;BME280;31601;48.042;12.240;2023-01-26T10:47:22;96341.56;;;2.64;61.40
12757;BME280;31601;48.042;12.240;2023-01-26T10:49:49;96339.66;;;2.66;61.13
12757;BME280;31601;48.042;12.240;2023-01-26T10:52:17;96348.09;;;2.58;61.34
12757;BME280;31601;48.042;12.240;2023-01-26T10:54:46;96346.34;;;2.38;61.57
12757;BME280;31601;48.042;12.240;2023-01-26T10:57:16;96345.72;;;2.14;61.84
12757;BME280;31601;48.042;12.240;2023-01-26T10:59:49;96350.53;;;1.98;61.79
12757;BME280;31601;48.042;12.240;2023-01-26T11:02:22;96342.44;;;2.12;61.88
12757;BME280;31601;48.042;12.240;2023-01-26T11:05:14;96346.22;;;2.39;61.49
12757;BME280;31601;48.042;12.240;2023-01-26T11:07:42;96339.03;;;2.43;61.33
12757;BME280;31601;48.042;12.240;2023-01-26T11:10:21;96340.91;;;2.41;61.03
12757;BME280;31601;48.042;12.240;2023-01-26T11:12:48;96342.72;;;2.50;61.27
12757;BME280;31601;48.042;12.240;2023-01-26T11:15:17;96344.91;;;2.45;61.60
12757;BME280;31601;48.042;12.240;2023-01-26T11:17:51;96344.09;;;2.44;60.91
12757;BME280;31601;48.042;12.240;2023-01-26T11:20:41;96343.22;;;2.34;61.30
12757;BME280;31601;48.042;12.240;2023-01-26T11:23:17;96344.16;;;2.33;61.77
12757;BME280;31601;48.042;12.240;2023-01-26T11:29:07;96336.75;;;2.19;62.26
12757;BME280;31601;48.042;12.240;2023-01-26T11:31:45;96330.13;;;2.05;62.78
12757;BME280;31601;48.042;12.240;2023-01-26T11:34:27;96327.41;;;2.06;62.90
12757;BME280;31601;48.042;12.240;2023-01-26T11:37:02;96323.44;;;2.02;63.76
12757;BME280;31601;48.042;12.240;2023-01-26T11:39:37;96322.75;;;2.00;62.87
12757;BME280;31601;48.042;12.240;2023-01-26T11:42:17;96324.41;;;2.01;62.94
12757;BME280;31601;48.042;12.240;2023-01-26T11:44:57;96319.16;;;1.91;62.56
12757;BME280;31601;48.042;12.240;2023-01-26T11:47:39;96322.00;;;1.88;62.22
12757;BME280;31601;48.042;12.240;2023-01-26T11:50:23;96323.31;;;1.40;63.31
12757;BME280;31601;48.042;12.240;2023-01-26T11:53:05;96320.13;;;1.90;62.29
12757;BME280;31601;48.042;12.240;2023-01-26T11:55:51;96319.72;;;1.53;63.13
12757;BME280;31601;48.042;12.240;2023-01-26T11:58:28;96310.34;;;1.73;63.34
12757;BME280;31601;48.042;12.240;2023-01-26T12:00:57;96307.53;;;1.55;63.29
12757;BME280;31601;48.042;12.240;2023-01-26T12:03:29;96299.88;;;1.53;63.30
12757;BME280;31601;48.042;12.240;2023-01-26T12:06:04;96303.03;;;1.78;62.86
12757;BME280;31601;48.042;12.240;2023-01-26T12:08:35;96299.34;;;2.02;62.58
12757;BME280;31601;48.042;12.240;2023-01-26T12:11:08;96301.91;;;1.71;62.28
12757;BME280;31601;48.042;12.240;2023-01-26T12:13:54;96296.66;;;2.13;61.65
12757;BME280;31601;48.042;12.240;2023-01-26T12:16:29;96302.06;;;1.79;62.24
12757;BME280;31601;48.042;12.240;2023-01-26T12:19:05;96298.22;;;1.94;61.55
12757;BME280;31601;48.042;12.240;2023-01-26T12:21:38;96297.56;;;2.02;61.50
12757;BME280;31601;48.042;12.240;2023-01-26T12:24:12;96299.84;;;1.95;62.19
12757;BME280;31601;48.042;12.240;2023-01-26T12:26:43;96287.31;;;1.70;62.36
12757;BME280;31601;48.042;12.240;2023-01-26T12:29:15;96294.19;;;1.38;62.81
12757;BME280;31601;48.042;12.240;2023-01-26T12:31:48;96297.97;;;1.55;63.24
12757;BME280;31601;48.042;12.240;2023-01-26T12:34:16;96296.75;;;1.81;63.03
12757;BME280;31601;48.042;12.240;2023-01-26T12:36:57;96290.94;;;1.88;62.57
12757;BME280;31601;48.042;12.240;2023-01-26T12:39:30;96301.41;;;2.08;61.98
12757;BME280;31601;48.042;12.240;2023-01-26T12:42:05;96299.72;;;1.97;62.39
12757;BME280;31601;48.042;12.240;2023-01-26T12:44:36;96299.34;;;2.02;62.30
12757;BME280;31601;48.042;12.240;2023-01-26T12:47:08;96304.41;;;2.13;62.34
12757;BME280;31601;48.042;12.240;2023-01-26T12:49:45;96298.56;;;2.11;61.79
12757;BME280;31601;48.042;12.240;2023-01-26T12:52:20;96300.09;;;1.92;62.72
12757;BME280;31601;48.042;12.240;2023-01-26T12:54:52;96306.16;;;2.03;61.91
12757;BME280;31601;48.042;12.240;2023-01-26T12:57:24;96307.66;;;2.05;61.88
12757;BME280;31601;48.042;12.240;2023-01-26T12:59:51;96306.31;;;2.11;61.54
12757;BME280;31601;48.042;12.240;2023-01-26T13:02:24;96302.72;;;2.23;61.39
12757;BME280;31601;48.042;12.240;2023-01-26T13:04:52;96291.22;;;2.16;61.83
12757;BME280;31601;48.042;12.240;2023-01-26T13:07:32;96300.72;;;2.06;62.03
12757;BME280;31601;48.042;12.240;2023-01-26T13:10:19;96290.34;;;1.33;63.53
12757;BME280;31601;48.042;12.240;2023-01-26T13:12:48;96289.72;;;1.61;63.20
12757;BME280;31601;48.042;12.240;2023-01-26T13:15:16;96287.13;;;1.40;63.85
12757;BME280;31601;48.042;12.240;2023-01-26T13:17:54;96284.94;;;1.57;63.80
12757;BME280;31601;48.042;12.240;2023-01-26T13:20:40;96280.63;;;1.46;64.16